Plymouth Peak Pro Challenge - Loft Flying

Station: INVENTORY - T Race

Distance: 10 Miles    

Release: 04-Jun-2018 10:00

Weather Release:    Arrival:

Wind at Release:     Wind at Arrival:

Temp at Release: °    Temp at Arrival: °

Lofts: 122

Birds: 661

Clocked: 648

Good Luck to Everyone!
Drops Pos Breeder Pigeon Name Color Sex Ent Arrival Speed To Win Eligible AOCPed
501 Pairan Racing Loft - OH 0001-AU18-LFO BC H 8 10:39:44.90 442.786 00:06:43 Yes
502 Bill Kluge - TX 18023-AU18-COLD BBSP C 5 10:39:47.60 442.285 00:06:46 Lost
503 Skylinerpl.Com - UT 1016-AU18-UVI "Over Easy" BBTC C 7 10:39:49.00 442.026 00:06:48 Yes
504 S & M Loft - Eden Loft - ID 7075-AU18-AA RC C 11 10:40:00.20 439.963 00:06:59 Lost
505 Liu Loft - NC 0864-AU18-KVLI BB C 8 10:40:03.00 439.451 00:07:01 Yes
506 Columba Loft - GA 8103-AU18-LYNC BB H 7 10:40:04.00 439.268 00:07:03 Yes
507 Poorhouse Road Loft - VA 56009-AU18-ARPU BC C 4 10:40:04.30 439.213 00:07:03 Yes
508 Smith R.P.L. - UT 3569-AU18-SRPL BB H 14 10:40:06.80 438.757 00:07:05 Yes
509 Kevin Mc Grew - TX 21191-AU18-AA BBWF H 2 10:40:09.20 438.320 00:07:08 Lost
510 Da-Dong - WI 6053-AU18-RRP 45641 BB C 11 10:40:10.80 438.029 00:07:09 Yes
511 Poorhouse Road Loft - VA 56013-AU18-ARPU BBSM H 5 10:40:13.60 437.521 00:07:12 Lost
512 Baldwin & Tilson - NC 8001-AU18-TENT RR H 11 10:40:14.20 437.412 00:07:13 Lost
513 Lindsay - UT 18735-AU18-RMR GRIZ H 4 10:40:15.00 437.267 00:07:14 Yes
514 Columba Loft - GA 8242-AU18-LYNC BB H 8 10:40:17.30 436.851 00:07:16 Yes
515 T B Brothers Loft - MS 2885-AU18-VITA BB H 1 10:40:24.00 435.644 00:07:22 Yes
516 Ed Kehl - UT 1511-AU18-WFA BB H 10 10:40:27.40 435.033 00:07:26 Lost
517 Bryan Maier - PA 0338-IF18-MAIE BB C 7 10:40:29.00 434.747 00:07:28 Yes
518 No Limit Loft - CA 4808-AU18-HIGH BB C 5 10:40:29.70 434.622 00:07:28 Yes
519 S & M Loft - Eden Loft - ID 7010-AU18-AA BC H 12 10:40:31.70 434.264 00:07:30 Yes
520 A P C Loft - TX 18137-AU18-APC BB H 13 10:40:31.90 434.228 00:07:30 Yes
521 Fassio Loft - UT 0876-AU18-SLI Lisa Rocks BBSP H 11 10:40:33.40 433.961 00:07:32 Lost
522 Bieche-Stevenson - CA 8075-AU18-BIEC BC C 4 10:40:37.70 433.195 00:07:36 Yes
523 Baldwin & Tilson - NC 8000-AU18-TENT 7019 RR H 12 10:40:39.60 432.858 00:07:38 Yes
524 Bieche-Stevenson - CA 8149-AU18-BIEC BC C 5 10:40:41.70 432.486 00:07:40 Yes
525 Nanez Family Lofts - WI 8074-AU18-NFL BB C 12 10:40:42.40 432.362 00:07:41 Lost
526 Smith R.P.L. - UT 0703-AU18-UVI BB H 15 10:40:43.30 432.202 00:07:42 Yes
527 Shewmaker.Com - CA 8297-AU18-SHEW BC C 3 10:40:45.50 431.814 00:07:44 Yes
528 D G F Loft - UT 0389-AU18-UVI 5086x11394 BBPN H 5 10:40:51.00 430.845 00:07:49 Yes
529 Vincent Rooney - VA 8070-IF18-SEA BCSM H 4 10:40:53.70 430.370 00:07:52 Yes
530 T B Brothers Loft - MS 2886-AU18-VITA BB H 2 10:40:55.10 430.125 00:07:54 Yes
531 Crazy Als Lofts - CO 5210-AU18-CRAZ DCSM H 4 10:41:00.70 429.146 00:07:59 Lost
532 Brook Loft - NC 8666-IF18-CCF BBWF H 8 10:41:32.90 423.603 00:08:31 Yes
533 Shi Loft - PA 7730-IF18-ERIE BB C 6 10:41:45.70 421.439 00:08:44 Lost
534 Ling Lu - VA 0199-AU18-LING BC C 2 10:41:51.30 420.499 00:08:50 Yes
535 Alan Porter - WI 0419-AU18-RRR BBWF H 4 10:42:02.30 418.666 00:09:01 Yes
536 Duvall/Whiteley - UT 0912-AU18-UVI BB H 8 10:42:04.20 418.350 00:09:03 Lost
537 Kolvenbag & Son - PA 1202-IF18-KOLV BC H 8 10:42:04.50 418.301 00:09:03 Yes
538 Lou Pendleton - CO 8721-AU18-FH DCTC C 2 10:42:09.50 417.474 00:09:08 Lost
539 Fassio Loft - UT 0970-AU18-SLI Red Wolf BBSM H 12 10:42:19.40 415.846 00:09:18 Yes
540 Genesis Syndicate Loft - AZ 0263-AU18-GENE BB C 12 10:42:19.70 415.797 00:09:18 Yes
541 Golden Loft - WA 0555-AU18-RIXE BC H 5 10:42:20.40 415.683 00:09:19 Lost
542 Mountain View 2 - UT 0339-AU18-SLI BB H 3 10:42:22.50 415.339 00:09:21 Yes
543 Bluemountain Olr - PA 0807-IF18-FSJ BC C 3 10:42:30.80 413.988 00:09:29 Yes
544 Alan Porter - WI 0429-AU18-RRR BBWF H 5 10:42:32.50 413.712 00:09:31 Lost
545 B & M - CA 5351-AU18-COM BB H 6 10:42:40.10 412.484 00:09:39 Yes
546 B & M - CA 5355-AU18-COM BB C 7 10:42:53.70 410.304 00:09:52 Lost
547 B & M - CA 5343-AU18-COM BB H 8 10:42:56.70 409.827 00:09:55 Lost
548 Fleet Washington - DC 1818-AU18-FLEE BB H 7 10:43:35.50 403.747 00:10:34 Lost
549 Aimhigh Loft - CA 0115-AU18-FMT Aim-233/995 WGRZ H 2 10:44:08.10 398.776 00:11:07 Yes
550 P N W Challenge - ID 0103-AU18-PNWC Pair#20 BCWF H 4 10:44:09.90 398.506 00:11:08 Yes
551 Crazy Als Lofts - CO 5244-AU18-CRAZ BCTC H 5 10:44:15.70 397.635 00:11:14 Lost
552 Heritage Loft - UT 1428-AU18-SALS BB C 5 10:44:27.90 395.817 00:11:26 Lost
553 Mile High - CO 0037-AU18-FRAN Legend BB H 7 10:44:37.30 394.427 00:11:36 Lost
554 Heritage Loft - UT 17663-AU18-ARPU BC H 6 10:44:41.70 393.780 00:11:40 Yes
555 Da-Dong - WI 0808-AU18-RAC 567-2332windy City BBSM H 12 10:44:52.50 392.201 00:11:51 Yes
556 Eastern Pearl Loft - VA 0375-AU18-EPL 🈚️量 375 BCWF C 6 10:45:09.10 389.797 00:12:08 Lost
557 3 Stars & A Sun Loft - TX 0006-AU18-STAR BB H 2 10:45:21.30 388.050 00:12:20 Yes
558 Nick & Sons - WA 18006-AU18-NICK BCSM H 2 10:45:24.90 387.537 00:12:23 Lost
559 No Limit Loft - CA 4813-AU18-HIGH BB C 6 10:45:27.80 387.125 00:12:26 Yes
560 Great Wall - VA 0032-AU18-CHAN BC H 6 10:45:29.70 386.856 00:12:28 Lost
561 Racing Pigeon Digest - MT 1025-AU18-DIGE BB H 4 10:45:33.00 386.389 00:12:31 Lost
562 S & M Loft - Eden Loft - ID 6952-AU18-AA BC C 13 10:46:09.50 381.296 00:13:08 Yes
563 Lou Pendleton - CO 8704-AU18-FH BB C 3 10:46:13.70 380.719 00:13:12 Lost
564 Poorhouse Road Loft - VA 56012-AU18-ARPU BB H 6 10:46:20.20 379.829 00:13:19 Yes
565 Blue - Face - CA 1904-AU18-FVC BC C 1 10:46:36.00 377.682 00:13:35 Lost
566 Liu Loft - NC 0858-AU18-KVLI BC H 9 10:46:49.20 375.908 00:13:48 Lost
567 De La O-Siino - CA 8015-AU18-COOK BB H 5 10:47:06.20 373.647 00:14:05 Yes
568 Jones Boys - UT 0590-AU18-SLI BBSM C 4 10:47:07.20 373.514 00:14:06 Lost
569 No Limit Loft - CA 4807-AU18-HIGH BB C 7 10:47:18.50 372.027 00:14:17 Lost
570 T B Brothers Loft - MS 2881-AU18-VITA BBSM H 3 10:47:29.10 370.643 00:14:28 Yes
571 Bryan Maier - PA 0329-IF18-MAIE BB H 8 10:47:53.40 367.509 00:14:52 Lost
572 Red Ass Ranch - TX 0329-AU18-RAR BBWF C 7 10:48:01.80 366.438 00:15:00 Yes
573 Racing Pigeon Mall - WA 0811-AU18-RPM BB C 4 10:48:05.90 365.917 00:15:04 Yes
574 Shawnee Creek Loft - AL 1812-AU18-NDN DC C 2 10:48:09.00 365.524 00:15:08 Lost
575 Da-Dong - WI 0825-AU18-RAC 200-376(John baby) BB H 13 10:48:26.10 363.374 00:15:25 Lost
576 Fleet Washington - DC 1840-AU18-FLEE BB C 8 10:48:31.50 362.700 00:15:30 Lost
577 M & Y Connection - MI 0030-AU18-MSYP 84 X 91736 BCSP H 4 10:48:52.30 360.127 00:15:51 Yes
578 Poorhouse Road Loft - VA 56002-AU18-ARPU BB C 7 10:49:12.20 357.699 00:16:11 Lost
579 Da-Dong - WI 6057-AU18-RRP 1168-4531 BB H 14 10:50:20.60 349.599 00:17:19 Yes
580 B & M - CA 5360-AU18-COM BB H 9 10:50:21.60 349.484 00:17:20 Yes
581 Smith R.P.L. - UT 3571-AU18-SRPL BB H 16 10:50:24.20 349.183 00:17:23 Lost
582 Bryan Maier - PA 0321-IF18-MAIE BB H 9 10:50:35.30 347.906 00:17:34 Yes
583 El Dorado Loft - TX 10910-AU18-JEDD BBWF C 1 10:50:52.20 345.980 00:17:51 Yes
584 Rick Barker - CA 0262-AU18-VIP MLTC C 1 10:51:19.30 342.935 00:18:18 Lost
585 Slick Hills Loft - UT 38611-AU18-ARPU BCTC H 10 10:51:20.40 342.813 00:18:19 Yes
586 Duvall/Whiteley - UT 0976-AU18-UVI BC H 9 10:51:25.40 342.257 00:18:24 Yes
587 Spring Break Race - UT 22412-AU18-AA BBWF H 6 10:51:31.20 341.615 00:18:30 Yes
588 Western Loft - CA 0309-AU18-SFR BB C 5 10:51:38.10 340.854 00:18:37 Yes
589 Poorhouse Road Loft - VA 56010-AU18-ARPU BC H 8 10:52:21.10 336.188 00:19:20 Yes
590 Red Ass Ranch - TX 0337-AU18-RAR BBTC C 8 10:52:28.20 335.430 00:19:27 Yes
591 No Limit Loft - CA 4814-AU18-HIGH BB C 8 10:52:59.30 332.149 00:19:58 Yes
592 Wessel Family Lofts - CA 2008-AU18-ARC LTRC H 5 10:53:08.50 331.190 00:20:07 Lost
593 Warbird Loft - CO 8628-AU18-FH BBWF C 3 10:53:20.30 329.969 00:20:19 Lost
594 Kfly Racing Pigeon Loft - ID 1805-AU18-KFLY Ever Constant Eagle 05 BBSM H 1 10:53:36.20 328.338 00:20:35 Yes
595 7-11 Syndicate - CA 0535-AU18-SD BCSP C 2 10:54:11.00 324.823 00:21:10 Yes
596 Skylinerpl.Com - UT 1017-AU18-UVI "Super Easy" BBWF H 8 10:54:13.70 324.554 00:21:12 Yes
597 Fassio Loft - UT 0917-AU18-SLI Super Pete's BBSP H 13 10:54:16.30 324.294 00:21:15 Lost
598 Mile High - CO 2323-AU18-AA BB H 8 10:54:19.60 323.966 00:21:18 Lost
599 Laser Loft - SC 8606-AU18-LASE DC H 3 10:54:20.50 323.877 00:21:19 Lost
600 Skylinerpl.Com - UT 11496-AU18-JEDD BBWC H 9 10:54:23.90 323.539 00:21:22 Yes

There are 390 bird records

Note: These Race Results are unofficial and subject to change until verified by the Race Committee and declared final.